sensor_id;sensor_type;location;lat;lon;timestamp;temperature;humidity
3051;DHT22;1535;51.098;6.414;2023-12-20T00:01:02;7.70;99.90
3051;DHT22;1535;51.098;6.414;2023-12-20T00:03:29;7.70;99.90
3051;DHT22;1535;51.098;6.414;2023-12-20T00:05:56;7.60;99.90
3051;DHT22;1535;51.098;6.414;2023-12-20T00:08:23;7.60;99.90
3051;DHT22;1535;51.098;6.414;2023-12-20T00:10:50;7.60;99.90
3051;DHT22;1535;51.098;6.414;2023-12-20T00:13:17;7.50;99.90
3051;DHT22;1535;51.098;6.414;2023-12-20T00:15:44;7.40;99.90
3051;DHT22;1535;51.098;6.414;2023-12-20T00:18:12;7.40;99.90
3051;DHT22;1535;51.098;6.414;2023-12-20T00:20:40;7.40;99.90
3051;DHT22;1535;51.098;6.414;2023-12-20T00:23:06;7.30;99.90
3051;DHT22;1535;51.098;6.414;2023-12-20T00:25:34;7.30;99.90
3051;DHT22;1535;51.098;6.414;2023-12-20T00:28:01;7.30;99.90
3051;DHT22;1535;51.098;6.414;2023-12-20T00:30:28;7.30;99.90
3051;DHT22;1535;51.098;6.414;2023-12-20T00:32:55;7.30;99.90
3051;DHT22;1535;51.098;6.414;2023-12-20T00:35:24;7.30;99.90
3051;DHT22;1535;51.098;6.414;2023-12-20T00:37:51;7.40;99.90
3051;DHT22;1535;51.098;6.414;2023-12-20T00:40:17;7.40;99.90
3051;DHT22;1535;51.098;6.414;2023-12-20T00:42:45;7.40;99.90
3051;DHT22;1535;51.098;6.414;2023-12-20T00:45:13;7.40;99.90
3051;DHT22;1535;51.098;6.414;2023-12-20T00:47:40;7.30;99.90
3051;DHT22;1535;51.098;6.414;2023-12-20T00:50:08;7.20;99.90
3051;DHT22;1535;51.098;6.414;2023-12-20T00:52:36;7.30;99.90
3051;DHT22;1535;51.098;6.414;2023-12-20T00:55:05;7.20;99.90
3051;DHT22;1535;51.098;6.414;2023-12-20T00:57:31;7.10;99.90
3051;DHT22;1535;51.098;6.414;2023-12-20T00:59:59;7.10;99.90
3051;DHT22;1535;51.098;6.414;2023-12-20T01:02:26;7.10;99.90
3051;DHT22;1535;51.098;6.414;2023-12-20T01:04:53;7.00;99.90
3051;DHT22;1535;51.098;6.414;2023-12-20T01:07:20;7.00;99.90
3051;DHT22;1535;51.098;6.414;2023-12-20T01:09:49;7.00;99.90
3051;DHT22;1535;51.098;6.414;2023-12-20T01:12:16;6.90;99.90
3051;DHT22;1535;51.098;6.414;2023-12-20T01:14:43;6.90;99.90
3051;DHT22;1535;51.098;6.414;2023-12-20T01:17:11;6.80;99.90
3051;DHT22;1535;51.098;6.414;2023-12-20T01:19:38;6.70;99.90
3051;DHT22;1535;51.098;6.414;2023-12-20T01:22:06;6.70;99.90
3051;DHT22;1535;51.098;6.414;2023-12-20T01:24:33;6.60;99.90
3051;DHT22;1535;51.098;6.414;2023-12-20T01:27:01;6.50;99.90
3051;DHT22;1535;51.098;6.414;2023-12-20T01:29:27;6.40;99.90
3051;DHT22;1535;51.098;6.414;2023-12-20T01:31:54;6.20;99.90
3051;DHT22;1535;51.098;6.414;2023-12-20T01:34:21;6.30;99.90
3051;DHT22;1535;51.098;6.414;2023-12-20T01:36:50;6.30;99.90
3051;DHT22;1535;51.098;6.414;2023-12-20T01:39:17;6.20;99.90
3051;DHT22;1535;51.098;6.414;2023-12-20T01:41:44;6.10;99.90
3051;DHT22;1535;51.098;6.414;2023-12-20T01:44:12;6.10;99.90
3051;DHT22;1535;51.098;6.414;2023-12-20T01:46:40;6.10;99.90
3051;DHT22;1535;51.098;6.414;2023-12-20T01:49:08;6.10;99.90
3051;DHT22;1535;51.098;6.414;2023-12-20T01:51:35;6.10;99.90
3051;DHT22;1535;51.098;6.414;2023-12-20T01:54:02;6.10;99.90
3051;DHT22;1535;51.098;6.414;2023-12-20T01:56:31;6.00;99.90
3051;DHT22;1535;51.098;6.414;2023-12-20T01:58:59;5.90;99.90
3051;DHT22;1535;51.098;6.414;2023-12-20T02:01:29;5.80;99.90
3051;DHT22;1535;51.098;6.414;2023-12-20T02:03:56;5.80;99.90
3051;DHT22;1535;51.098;6.414;2023-12-20T02:06:24;5.70;99.90
3051;DHT22;1535;51.098;6.414;2023-12-20T02:08:54;5.70;99.90
3051;DHT22;1535;51.098;6.414;2023-12-20T02:11:21;5.60;99.90
3051;DHT22;1535;51.098;6.414;2023-12-20T02:13:51;5.60;99.90
3051;DHT22;1535;51.098;6.414;2023-12-20T02:16:17;5.60;99.90
3051;DHT22;1535;51.098;6.414;2023-12-20T02:18:45;5.60;99.90
3051;DHT22;1535;51.098;6.414;2023-12-20T02:21:13;5.70;99.90
3051;DHT22;1535;51.098;6.414;2023-12-20T02:23:41;5.70;99.90
3051;DHT22;1535;51.098;6.414;2023-12-20T02:26:07;5.70;99.90
3051;DHT22;1535;51.098;6.414;2023-12-20T02:28:35;5.80;99.90
3051;DHT22;1535;51.098;6.414;2023-12-20T02:31:03;5.80;99.90
3051;DHT22;1535;51.098;6.414;2023-12-20T02:33:30;5.90;99.90
3051;DHT22;1535;51.098;6.414;2023-12-20T02:35:57;5.90;99.90
3051;DHT22;1535;51.098;6.414;2023-12-20T02:38:23;5.90;99.90
3051;DHT22;1535;51.098;6.414;2023-12-20T02:40:51;6.00;99.90
3051;DHT22;1535;51.098;6.414;2023-12-20T02:43:18;6.00;99.90
3051;DHT22;1535;51.098;6.414;2023-12-20T02:45:45;6.00;99.90
3051;DHT22;1535;51.098;6.414;2023-12-20T02:48:12;6.00;99.90
3051;DHT22;1535;51.098;6.414;2023-12-20T02:50:39;6.00;99.90
3051;DHT22;1535;51.098;6.414;2023-12-20T02:53:06;6.00;99.90
3051;DHT22;1535;51.098;6.414;2023-12-20T02:55:32;5.90;99.90
3051;DHT22;1535;51.098;6.414;2023-12-20T02:58:00;5.90;99.90
3051;DHT22;1535;51.098;6.414;2023-12-20T03:00:27;5.80;99.90
3051;DHT22;1535;51.098;6.414;2023-12-20T03:02:55;5.70;99.90
3051;DHT22;1535;51.098;6.414;2023-12-20T03:05:20;5.70;99.90
3051;DHT22;1535;51.098;6.414;2023-12-20T03:07:47;5.60;99.90
3051;DHT22;1535;51.098;6.414;2023-12-20T03:10:14;5.60;99.90
3051;DHT22;1535;51.098;6.414;2023-12-20T03:12:41;5.60;99.90
3051;DHT22;1535;51.098;6.414;2023-12-20T03:15:10;5.60;99.90
3051;DHT22;1535;51.098;6.414;2023-12-20T03:17:36;5.70;99.90
3051;DHT22;1535;51.098;6.414;2023-12-20T03:20:04;5.70;99.90
3051;DHT22;1535;51.098;6.414;2023-12-20T03:22:31;5.80;99.90
3051;DHT22;1535;51.098;6.414;2023-12-20T03:24:58;5.80;99.90
3051;DHT22;1535;51.098;6.414;2023-12-20T03:27:25;5.80;99.90
3051;DHT22;1535;51.098;6.414;2023-12-20T03:29:52;5.80;99.90
3051;DHT22;1535;51.098;6.414;2023-12-20T03:32:21;5.80;99.90
3051;DHT22;1535;51.098;6.414;2023-12-20T03:34:47;5.90;99.90
3051;DHT22;1535;51.098;6.414;2023-12-20T03:37:15;5.80;99.90
3051;DHT22;1535;51.098;6.414;2023-12-20T03:39:42;5.80;99.90
3051;DHT22;1535;51.098;6.414;2023-12-20T03:42:09;5.80;99.90
3051;DHT22;1535;51.098;6.414;2023-12-20T03:44:39;5.80;99.90
3051;DHT22;1535;51.098;6.414;2023-12-20T03:47:07;5.80;99.90
3051;DHT22;1535;51.098;6.414;2023-12-20T03:49:35;5.70;99.90
3051;DHT22;1535;51.098;6.414;2023-12-20T03:52:05;5.70;99.90
3051;DHT22;1535;51.098;6.414;2023-12-20T03:54:33;5.70;99.90
3051;DHT22;1535;51.098;6.414;2023-12-20T03:57:00;5.60;99.90
3051;DHT22;1535;51.098;6.414;2023-12-20T03:59:27;5.60;99.90
3051;DHT22;1535;51.098;6.414;2023-12-20T04:01:54;5.60;99.90
3051;DHT22;1535;51.098;6.414;2023-12-20T04:04:22;5.60;99.90
3051;DHT22;1535;51.098;6.414;2023-12-20T04:06:50;5.70;99.90
3051;DHT22;1535;51.098;6.414;2023-12-20T04:09:17;5.70;99.90
3051;DHT22;1535;51.098;6.414;2023-12-20T04:11:45;5.80;99.90
3051;DHT22;1535;51.098;6.414;2023-12-20T04:14:11;5.70;99.90
3051;DHT22;1535;51.098;6.414;2023-12-20T04:16:39;5.70;99.90
3051;DHT22;1535;51.098;6.414;2023-12-20T04:19:06;5.60;99.90
3051;DHT22;1535;51.098;6.414;2023-12-20T04:21:32;5.60;99.90
3051;DHT22;1535;51.098;6.414;2023-12-20T04:24:00;5.50;99.90
3051;DHT22;1535;51.098;6.414;2023-12-20T04:26:27;5.50;99.90
3051;DHT22;1535;51.098;6.414;2023-12-20T04:28:55;5.40;99.90
3051;DHT22;1535;51.098;6.414;2023-12-20T04:31:22;5.40;99.90
3051;DHT22;1535;51.098;6.414;2023-12-20T04:33:49;5.50;99.90
3051;DHT22;1535;51.098;6.414;2023-12-20T04:36:16;5.50;99.90
3051;DHT22;1535;51.098;6.414;2023-12-20T04:38:43;5.50;99.90
3051;DHT22;1535;51.098;6.414;2023-12-20T04:41:12;5.40;99.90
3051;DHT22;1535;51.098;6.414;2023-12-20T04:43:42;5.40;99.90
3051;DHT22;1535;51.098;6.414;2023-12-20T04:46:08;5.40;99.90
3051;DHT22;1535;51.098;6.414;2023-12-20T04:48:35;5.40;99.90
3051;DHT22;1535;51.098;6.414;2023-12-20T04:51:03;5.40;99.90
3051;DHT22;1535;51.098;6.414;2023-12-20T04:53:30;5.40;99.90
3051;DHT22;1535;51.098;6.414;2023-12-20T04:55:57;5.40;99.90
3051;DHT22;1535;51.098;6.414;2023-12-20T04:58:25;5.40;99.90
3051;DHT22;1535;51.098;6.414;2023-12-20T05:00:52;5.40;99.90
3051;DHT22;1535;51.098;6.414;2023-12-20T05:03:19;5.40;99.90
3051;DHT22;1535;51.098;6.414;2023-12-20T05:05:46;5.40;99.90
3051;DHT22;1535;51.098;6.414;2023-12-20T05:08:14;5.40;99.90
3051;DHT22;1535;51.098;6.414;2023-12-20T05:10:42;5.50;99.90
3051;DHT22;1535;51.098;6.414;2023-12-20T05:13:09;5.50;99.90
3051;DHT22;1535;51.098;6.414;2023-12-20T05:15:37;5.50;99.90
3051;DHT22;1535;51.098;6.414;2023-12-20T05:18:05;5.50;99.90
3051;DHT22;1535;51.098;6.414;2023-12-20T05:20:32;5.60;99.90
3051;DHT22;1535;51.098;6.414;2023-12-20T05:22:59;5.60;99.90
3051;DHT22;1535;51.098;6.414;2023-12-20T05:25:26;5.70;99.90
3051;DHT22;1535;51.098;6.414;2023-12-20T05:27:53;5.70;99.90
3051;DHT22;1535;51.098;6.414;2023-12-20T05:30:21;5.70;99.90
3051;DHT22;1535;51.098;6.414;2023-12-20T05:32:49;5.80;99.90
3051;DHT22;1535;51.098;6.414;2023-12-20T05:35:17;5.80;99.90
3051;DHT22;1535;51.098;6.414;2023-12-20T05:37:44;5.80;99.90
3051;DHT22;1535;51.098;6.414;2023-12-20T05:40:11;5.90;99.90
3051;DHT22;1535;51.098;6.414;2023-12-20T05:42:39;5.90;99.90
3051;DHT22;1535;51.098;6.414;2023-12-20T05:45:06;5.90;99.90
3051;DHT22;1535;51.098;6.414;2023-12-20T05:47:33;5.90;99.90
3051;DHT22;1535;51.098;6.414;2023-12-20T05:50:02;5.90;99.90
3051;DHT22;1535;51.098;6.414;2023-12-20T05:52:30;5.90;99.90
3051;DHT22;1535;51.098;6.414;2023-12-20T05:54:57;6.00;99.90
3051;DHT22;1535;51.098;6.414;2023-12-20T05:57:26;5.90;99.90
3051;DHT22;1535;51.098;6.414;2023-12-20T05:59:53;6.00;99.90
3051;DHT22;1535;51.098;6.414;2023-12-20T06:02:21;6.00;99.90
3051;DHT22;1535;51.098;6.414;2023-12-20T06:04:48;6.00;99.90
3051;DHT22;1535;51.098;6.414;2023-12-20T06:07:17;6.00;99.90
3051;DHT22;1535;51.098;6.414;2023-12-20T06:09:44;6.10;99.90
3051;DHT22;1535;51.098;6.414;2023-12-20T06:12:11;6.00;99.90
3051;DHT22;1535;51.098;6.414;2023-12-20T06:14:38;6.10;99.90
3051;DHT22;1535;51.098;6.414;2023-12-20T06:17:04;6.10;99.90
3051;DHT22;1535;51.098;6.414;2023-12-20T06:19:31;6.20;99.90
3051;DHT22;1535;51.098;6.414;2023-12-20T06:21:58;6.20;99.90
3051;DHT22;1535;51.098;6.414;2023-12-20T06:24:26;6.20;99.90
3051;DHT22;1535;51.098;6.414;2023-12-20T06:26:53;6.20;99.90
3051;DHT22;1535;51.098;6.414;2023-12-20T06:29:22;6.20;99.90
3051;DHT22;1535;51.098;6.414;2023-12-20T06:31:49;6.20;99.90
3051;DHT22;1535;51.098;6.414;2023-12-20T06:34:15;6.20;99.90
3051;DHT22;1535;51.098;6.414;2023-12-20T06:36:42;6.20;99.90
3051;DHT22;1535;51.098;6.414;2023-12-20T06:39:09;6.20;99.90
3051;DHT22;1535;51.098;6.414;2023-12-20T06:41:39;6.30;99.90
3051;DHT22;1535;51.098;6.414;2023-12-20T06:44:08;6.30;99.90
3051;DHT22;1535;51.098;6.414;2023-12-20T06:46:35;6.30;99.90
3051;DHT22;1535;51.098;6.414;2023-12-20T06:49:02;6.30;99.90
3051;DHT22;1535;51.098;6.414;2023-12-20T06:51:29;6.30;99.90
3051;DHT22;1535;51.098;6.414;2023-12-20T06:53:57;6.30;99.90
3051;DHT22;1535;51.098;6.414;2023-12-20T06:56:25;6.30;99.90
3051;DHT22;1535;51.098;6.414;2023-12-20T06:58:53;6.30;99.90
3051;DHT22;1535;51.098;6.414;2023-12-20T07:01:20;6.30;99.90
3051;DHT22;1535;51.098;6.414;2023-12-20T07:03:48;6.30;99.90
3051;DHT22;1535;51.098;6.414;2023-12-20T07:06:15;6.30;99.90
3051;DHT22;1535;51.098;6.414;2023-12-20T07:08:42;6.30;99.90
3051;DHT22;1535;51.098;6.414;2023-12-20T07:11:09;6.30;99.90
3051;DHT22;1535;51.098;6.414;2023-12-20T07:13:36;6.30;99.90
3051;DHT22;1535;51.098;6.414;2023-12-20T07:16:04;6.30;99.90
3051;DHT22;1535;51.098;6.414;2023-12-20T07:18:31;6.30;99.90
3051;DHT22;1535;51.098;6.414;2023-12-20T07:20:59;6.30;99.90
3051;DHT22;1535;51.098;6.414;2023-12-20T07:23:25;6.30;99.90
3051;DHT22;1535;51.098;6.414;2023-12-20T07:25:52;6.30;99.90
3051;DHT22;1535;51.098;6.414;2023-12-20T07:28:19;6.20;99.90
3051;DHT22;1535;51.098;6.414;2023-12-20T07:30:46;6.20;99.90
3051;DHT22;1535;51.098;6.414;2023-12-20T07:33:14;6.20;99.90
3051;DHT22;1535;51.098;6.414;2023-12-20T07:35:41;6.20;99.90
3051;DHT22;1535;51.098;6.414;2023-12-20T07:38:11;6.20;99.90
3051;DHT22;1535;51.098;6.414;2023-12-20T07:40:38;6.20;99.90
3051;DHT22;1535;51.098;6.414;2023-12-20T07:43:05;6.20;99.90
3051;DHT22;1535;51.098;6.414;2023-12-20T07:45:32;6.10;99.90
3051;DHT22;1535;51.098;6.414;2023-12-20T07:47:58;6.00;99.90
3051;DHT22;1535;51.098;6.414;2023-12-20T07:50:27;6.00;99.90
3051;DHT22;1535;51.098;6.414;2023-12-20T07:52:54;6.00;99.90
3051;DHT22;1535;51.098;6.414;2023-12-20T07:55:21;5.90;99.90
3051;DHT22;1535;51.098;6.414;2023-12-20T07:57:48;5.80;99.90
3051;DHT22;1535;51.098;6.414;2023-12-20T08:00:16;5.80;99.90
3051;DHT22;1535;51.098;6.414;2023-12-20T08:02:43;5.80;99.90
3051;DHT22;1535;51.098;6.414;2023-12-20T08:05:10;5.70;99.90
3051;DHT22;1535;51.098;6.414;2023-12-20T08:07:39;5.70;99.90
3051;DHT22;1535;51.098;6.414;2023-12-20T08:10:07;5.70;99.90
3051;DHT22;1535;51.098;6.414;2023-12-20T08:12:34;5.80;99.90
3051;DHT22;1535;51.098;6.414;2023-12-20T08:15:02;5.80;99.90
3051;DHT22;1535;51.098;6.414;2023-12-20T08:17:29;5.90;99.90
3051;DHT22;1535;51.098;6.414;2023-12-20T08:19:56;5.90;99.90
3051;DHT22;1535;51.098;6.414;2023-12-20T08:22:23;5.90;99.90
3051;DHT22;1535;51.098;6.414;2023-12-20T08:24:52;5.90;99.90
3051;DHT22;1535;51.098;6.414;2023-12-20T08:27:20;5.80;99.90
3051;DHT22;1535;51.098;6.414;2023-12-20T08:29:47;5.70;99.90
3051;DHT22;1535;51.098;6.414;2023-12-20T08:32:15;5.70;99.90
3051;DHT22;1535;51.098;6.414;2023-12-20T08:34:42;5.70;99.90
3051;DHT22;1535;51.098;6.414;2023-12-20T08:37:09;5.80;99.90
3051;DHT22;1535;51.098;6.414;2023-12-20T08:39:36;5.90;99.90
3051;DHT22;1535;51.098;6.414;2023-12-20T08:42:04;6.00;99.90
3051;DHT22;1535;51.098;6.414;2023-12-20T08:44:31;6.00;99.90
3051;DHT22;1535;51.098;6.414;2023-12-20T08:46:58;6.10;99.90
3051;DHT22;1535;51.098;6.414;2023-12-20T08:49:24;6.20;99.90
3051;DHT22;1535;51.098;6.414;2023-12-20T08:51:51;6.30;99.90
3051;DHT22;1535;51.098;6.414;2023-12-20T08:54:18;6.30;99.90
3051;DHT22;1535;51.098;6.414;2023-12-20T08:56:45;6.30;99.90
3051;DHT22;1535;51.098;6.414;2023-12-20T08:59:14;6.40;99.90
3051;DHT22;1535;51.098;6.414;2023-12-20T09:01:41;6.40;99.90
3051;DHT22;1535;51.098;6.414;2023-12-20T09:04:08;6.50;99.90
3051;DHT22;1535;51.098;6.414;2023-12-20T09:06:35;6.40;99.90
3051;DHT22;1535;51.098;6.414;2023-12-20T09:09:05;6.50;99.90
3051;DHT22;1535;51.098;6.414;2023-12-20T09:11:34;6.50;99.90
3051;DHT22;1535;51.098;6.414;2023-12-20T09:14:01;6.50;99.90
3051;DHT22;1535;51.098;6.414;2023-12-20T09:16:30;6.40;99.90
3051;DHT22;1535;51.098;6.414;2023-12-20T09:18:58;6.50;99.90
3051;DHT22;1535;51.098;6.414;2023-12-20T09:21:24;6.50;99.90
3051;DHT22;1535;51.098;6.414;2023-12-20T09:23:51;6.50;99.90
3051;DHT22;1535;51.098;6.414;2023-12-20T09:26:18;6.50;99.90
3051;DHT22;1535;51.098;6.414;2023-12-20T09:28:45;6.50;99.90
3051;DHT22;1535;51.098;6.414;2023-12-20T09:31:12;6.50;99.90
3051;DHT22;1535;51.098;6.414;2023-12-20T09:33:40;6.60;99.90
3051;DHT22;1535;51.098;6.414;2023-12-20T09:36:07;6.50;99.90
3051;DHT22;1535;51.098;6.414;2023-12-20T09:38:34;6.60;99.90
3051;DHT22;1535;51.098;6.414;2023-12-20T09:41:01;6.60;99.90
3051;DHT22;1535;51.098;6.414;2023-12-20T09:43:30;6.60;99.90
3051;DHT22;1535;51.098;6.414;2023-12-20T09:46:00;6.60;99.90
3051;DHT22;1535;51.098;6.414;2023-12-20T09:48:28;6.60;99.90
3051;DHT22;1535;51.098;6.414;2023-12-20T09:50:57;6.70;99.90
3051;DHT22;1535;51.098;6.414;2023-12-20T09:53:24;6.80;99.90
3051;DHT22;1535;51.098;6.414;2023-12-20T09:55:56;7.00;99.90
3051;DHT22;1535;51.098;6.414;2023-12-20T09:58:24;7.00;99.90
3051;DHT22;1535;51.098;6.414;2023-12-20T10:00:51;7.00;99.90
3051;DHT22;1535;51.098;6.414;2023-12-20T10:03:22;7.00;99.90
3051;DHT22;1535;51.098;6.414;2023-12-20T10:05:52;7.00;99.90
3051;DHT22;1535;51.098;6.414;2023-12-20T10:08:22;7.00;99.90
3051;DHT22;1535;51.098;6.414;2023-12-20T10:10:50;7.10;99.90
3051;DHT22;1535;51.098;6.414;2023-12-20T10:13:17;7.00;99.90
3051;DHT22;1535;51.098;6.414;2023-12-20T10:15:44;7.00;99.90
3051;DHT22;1535;51.098;6.414;2023-12-20T10:18:12;7.10;99.90
3051;DHT22;1535;51.098;6.414;2023-12-20T10:20:40;7.10;99.90
3051;DHT22;1535;51.098;6.414;2023-12-20T10:23:07;7.10;99.90
3051;DHT22;1535;51.098;6.414;2023-12-20T10:25:36;7.10;99.90
3051;DHT22;1535;51.098;6.414;2023-12-20T10:28:10;7.00;99.90
3051;DHT22;1535;51.098;6.414;2023-12-20T10:30:54;7.00;99.90
3051;DHT22;1535;51.098;6.414;2023-12-20T10:33:24;7.00;99.90
3051;DHT22;1535;51.098;6.414;2023-12-20T10:35:52;6.90;99.90
3051;DHT22;1535;51.098;6.414;2023-12-20T10:38:19;6.90;99.90
3051;DHT22;1535;51.098;6.414;2023-12-20T10:40:46;7.00;99.90
3051;DHT22;1535;51.098;6.414;2023-12-20T10:43:13;7.00;99.90
3051;DHT22;1535;51.098;6.414;2023-12-20T10:45:42;7.10;99.90
3051;DHT22;1535;51.098;6.414;2023-12-20T10:48:10;7.10;99.90
3051;DHT22;1535;51.098;6.414;2023-12-20T10:50:38;7.10;99.90
3051;DHT22;1535;51.098;6.414;2023-12-20T10:53:06;7.00;99.90
3051;DHT22;1535;51.098;6.414;2023-12-20T10:55:33;7.10;99.90
3051;DHT22;1535;51.098;6.414;2023-12-20T10:58:01;7.10;99.90
3051;DHT22;1535;51.098;6.414;2023-12-20T11:00:29;7.00;99.90
3051;DHT22;1535;51.098;6.414;2023-12-20T11:03:00;7.20;99.90
3051;DHT22;1535;51.098;6.414;2023-12-20T11:05:36;7.20;99.90
3051;DHT22;1535;51.098;6.414;2023-12-20T11:08:08;7.20;99.90
3051;DHT22;1535;51.098;6.414;2023-12-20T11:10:42;7.20;99.90
3051;DHT22;1535;51.098;6.414;2023-12-20T11:13:15;7.20;99.90
3051;DHT22;1535;51.098;6.414;2023-12-20T11:15:44;7.30;99.90
3051;DHT22;1535;51.098;6.414;2023-12-20T11:18:11;7.30;99.90
3051;DHT22;1535;51.098;6.414;2023-12-20T11:20:41;7.30;99.90
3051;DHT22;1535;51.098;6.414;2023-12-20T11:23:08;7.20;99.90
3051;DHT22;1535;51.098;6.414;2023-12-20T11:25:47;7.20;99.90
3051;DHT22;1535;51.098;6.414;2023-12-20T11:28:14;7.20;99.90
3051;DHT22;1535;51.098;6.414;2023-12-20T11:30:46;7.10;99.90
3051;DHT22;1535;51.098;6.414;2023-12-20T11:33:14;7.10;99.90
3051;DHT22;1535;51.098;6.414;2023-12-20T11:35:42;7.20;99.90
3051;DHT22;1535;51.098;6.414;2023-12-20T11:38:09;7.20;99.90
3051;DHT22;1535;51.098;6.414;2023-12-20T11:40:37;7.30;99.90
3051;DHT22;1535;51.098;6.414;2023-12-20T11:43:04;7.30;99.90
3051;DHT22;1535;51.098;6.414;2023-12-20T11:45:31;7.30;99.90
3051;DHT22;1535;51.098;6.414;2023-12-20T11:48:00;7.20;99.90
3051;DHT22;1535;51.098;6.414;2023-12-20T11:50:27;7.30;99.90
3051;DHT22;1535;51.098;6.414;2023-12-20T11:52:56;7.20;99.90
3051;DHT22;1535;51.098;6.414;2023-12-20T11:55:23;7.30;99.90
3051;DHT22;1535;51.098;6.414;2023-12-20T11:57:50;7.20;99.90
3051;DHT22;1535;51.098;6.414;2023-12-20T12:00:18;7.20;99.90
3051;DHT22;1535;51.098;6.414;2023-12-20T12:02:55;7.20;99.90
3051;DHT22;1535;51.098;6.414;2023-12-20T12:05:22;7.10;99.90
3051;DHT22;1535;51.098;6.414;2023-12-20T12:07:49;7.00;99.90
3051;DHT22;1535;51.098;6.414;2023-12-20T12:10:17;7.00;99.90
3051;DHT22;1535;51.098;6.414;2023-12-20T12:12:44;7.00;99.90
3051;DHT22;1535;51.098;6.414;2023-12-20T12:15:11;7.00;99.90
3051;DHT22;1535;51.098;6.414;2023-12-20T12:17:39;7.00;99.90
3051;DHT22;1535;51.098;6.414;2023-12-20T12:20:06;7.00;99.90
3051;DHT22;1535;51.098;6.414;2023-12-20T12:22:35;7.00;99.90
3051;DHT22;1535;51.098;6.414;2023-12-20T12:25:10;7.10;99.90
3051;DHT22;1535;51.098;6.414;2023-12-20T12:27:39;7.00;99.90
3051;DHT22;1535;51.098;6.414;2023-12-20T12:30:07;7.10;99.90
3051;DHT22;1535;51.098;6.414;2023-12-20T12:32:35;7.20;99.90
3051;DHT22;1535;51.098;6.414;2023-12-20T12:35:04;7.20;99.90
3051;DHT22;1535;51.098;6.414;2023-12-20T12:37:34;7.30;99.90
3051;DHT22;1535;51.098;6.414;2023-12-20T12:40:04;7.30;99.90
3051;DHT22;1535;51.098;6.414;2023-12-20T12:42:31;7.30;99.90
3051;DHT22;1535;51.098;6.414;2023-12-20T12:44:59;7.20;99.90
3051;DHT22;1535;51.098;6.414;2023-12-20T12:47:26;7.20;99.90
3051;DHT22;1535;51.098;6.414;2023-12-20T12:49:53;7.20;99.90
3051;DHT22;1535;51.098;6.414;2023-12-20T12:52:20;7.20;99.90
3051;DHT22;1535;51.098;6.414;2023-12-20T12:54:47;7.20;99.90
3051;DHT22;1535;51.098;6.414;2023-12-20T12:57:14;7.30;99.90
3051;DHT22;1535;51.098;6.414;2023-12-20T12:59:41;7.20;99.90
3051;DHT22;1535;51.098;6.414;2023-12-20T13:02:10;7.20;99.90
3051;DHT22;1535;51.098;6.414;2023-12-20T13:04:38;7.30;99.90
3051;DHT22;1535;51.098;6.414;2023-12-20T13:07:05;7.30;99.90
3051;DHT22;1535;51.098;6.414;2023-12-20T13:09:33;7.30;99.90
3051;DHT22;1535;51.098;6.414;2023-12-20T13:12:00;7.40;99.90
3051;DHT22;1535;51.098;6.414;2023-12-20T13:14:29;7.40;99.90
3051;DHT22;1535;51.098;6.414;2023-12-20T13:16:56;7.30;99.90
3051;DHT22;1535;51.098;6.414;2023-12-20T13:19:24;7.30;99.90
3051;DHT22;1535;51.098;6.414;2023-12-20T13:21:50;7.30;99.90
3051;DHT22;1535;51.098;6.414;2023-12-20T13:24:17;7.30;99.90
3051;DHT22;1535;51.098;6.414;2023-12-20T13:26:44;7.30;99.90
3051;DHT22;1535;51.098;6.414;2023-12-20T13:29:11;7.30;99.90
3051;DHT22;1535;51.098;6.414;2023-12-20T13:31:39;7.30;99.90
3051;DHT22;1535;51.098;6.414;2023-12-20T13:34:06;7.30;99.90
3051;DHT22;1535;51.098;6.414;2023-12-20T13:36:34;7.30;99.90
3051;DHT22;1535;51.098;6.414;2023-12-20T13:39:02;7.30;99.90
3051;DHT22;1535;51.098;6.414;2023-12-20T13:41:30;7.20;99.90
3051;DHT22;1535;51.098;6.414;2023-12-20T13:43:57;7.20;99.90
3051;DHT22;1535;51.098;6.414;2023-12-20T13:46:24;7.20;99.90
3051;DHT22;1535;51.098;6.414;2023-12-20T13:48:51;7.20;99.90
3051;DHT22;1535;51.098;6.414;2023-12-20T13:51:17;7.30;99.90
3051;DHT22;1535;51.098;6.414;2023-12-20T13:53:47;7.30;99.90
3051;DHT22;1535;51.098;6.414;2023-12-20T13:56:14;7.20;99.90
3051;DHT22;1535;51.098;6.414;2023-12-20T13:58:41;7.30;99.90
3051;DHT22;1535;51.098;6.414;2023-12-20T14:01:09;7.40;99.90
3051;DHT22;1535;51.098;6.414;2023-12-20T14:03:36;7.40;99.90
3051;DHT22;1535;51.098;6.414;2023-12-20T14:06:03;7.50;99.90
3051;DHT22;1535;51.098;6.414;2023-12-20T14:08:29;7.50;99.90
3051;DHT22;1535;51.098;6.414;2023-12-20T14:10:58;7.60;99.90
3051;DHT22;1535;51.098;6.414;2023-12-20T14:13:27;7.70;99.90
3051;DHT22;1535;51.098;6.414;2023-12-20T14:15:53;7.70;99.90
3051;DHT22;1535;51.098;6.414;2023-12-20T14:18:20;7.70;99.90
3051;DHT22;1535;51.098;6.414;2023-12-20T14:20:48;7.80;99.90
3051;DHT22;1535;51.098;6.414;2023-12-20T14:23:16;7.90;99.90
3051;DHT22;1535;51.098;6.414;2023-12-20T14:25:43;7.80;99.90
3051;DHT22;1535;51.098;6.414;2023-12-20T14:28:12;7.80;99.90
3051;DHT22;1535;51.098;6.414;2023-12-20T14:30:39;7.70;99.90
3051;DHT22;1535;51.098;6.414;2023-12-20T14:33:07;7.80;99.90
3051;DHT22;1535;51.098;6.414;2023-12-20T14:35:33;7.90;99.90
3051;DHT22;1535;51.098;6.414;2023-12-20T14:38:01;7.80;99.90
3051;DHT22;1535;51.098;6.414;2023-12-20T14:40:28;7.80;99.90
3051;DHT22;1535;51.098;6.414;2023-12-20T14:42:54;7.80;99.90
3051;DHT22;1535;51.098;6.414;2023-12-20T14:45:23;7.80;99.90
3051;DHT22;1535;51.098;6.414;2023-12-20T14:47:51;7.80;99.90
3051;DHT22;1535;51.098;6.414;2023-12-20T14:50:18;7.70;99.90
3051;DHT22;1535;51.098;6.414;2023-12-20T14:52:45;7.80;99.90
3051;DHT22;1535;51.098;6.414;2023-12-20T14:55:12;7.70;99.90
3051;DHT22;1535;51.098;6.414;2023-12-20T14:57:38;7.70;99.90
3051;DHT22;1535;51.098;6.414;2023-12-20T15:00:06;7.60;99.90
3051;DHT22;1535;51.098;6.414;2023-12-20T15:02:35;7.60;99.90
3051;DHT22;1535;51.098;6.414;2023-12-20T15:05:02;7.60;99.90
3051;DHT22;1535;51.098;6.414;2023-12-20T15:07:29;7.50;99.90
3051;DHT22;1535;51.098;6.414;2023-12-20T15:09:56;7.60;99.90
3051;DHT22;1535;51.098;6.414;2023-12-20T15:12:23;7.50;99.90
3051;DHT22;1535;51.098;6.414;2023-12-20T15:14:50;7.50;99.90
3051;DHT22;1535;51.098;6.414;2023-12-20T15:17:17;7.50;99.90
3051;DHT22;1535;51.098;6.414;2023-12-20T15:19:45;7.40;99.90
3051;DHT22;1535;51.098;6.414;2023-12-20T15:22:12;7.50;99.90
3051;DHT22;1535;51.098;6.414;2023-12-20T15:24:38;7.50;99.90
3051;DHT22;1535;51.098;6.414;2023-12-20T15:27:07;7.60;99.90
3051;DHT22;1535;51.098;6.414;2023-12-20T15:29:34;7.60;99.90
3051;DHT22;1535;51.098;6.414;2023-12-20T15:32:02;7.70;99.90
3051;DHT22;1535;51.098;6.414;2023-12-20T15:34:29;7.70;99.90
3051;DHT22;1535;51.098;6.414;2023-12-20T15:36:57;7.60;99.90
3051;DHT22;1535;51.098;6.414;2023-12-20T15:39:24;7.70;99.90
3051;DHT22;1535;51.098;6.414;2023-12-20T15:41:51;7.70;99.90
3051;DHT22;1535;51.098;6.414;2023-12-20T15:44:18;7.60;99.90
3051;DHT22;1535;51.098;6.414;2023-12-20T15:46:44;7.70;99.90
3051;DHT22;1535;51.098;6.414;2023-12-20T15:49:11;7.60;99.90
3051;DHT22;1535;51.098;6.414;2023-12-20T15:51:38;7.60;99.90
3051;DHT22;1535;51.098;6.414;2023-12-20T15:54:06;7.50;99.90
3051;DHT22;1535;51.098;6.414;2023-12-20T15:56:34;7.50;99.90
3051;DHT22;1535;51.098;6.414;2023-12-20T15:59:02;7.50;99.90
3051;DHT22;1535;51.098;6.414;2023-12-20T16:01:29;7.40;99.90
3051;DHT22;1535;51.098;6.414;2023-12-20T16:03:56;7.40;99.90
3051;DHT22;1535;51.098;6.414;2023-12-20T16:06:23;7.40;99.90
3051;DHT22;1535;51.098;6.414;2023-12-20T16:08:50;7.40;99.90
3051;DHT22;1535;51.098;6.414;2023-12-20T16:11:18;7.40;99.90
3051;DHT22;1535;51.098;6.414;2023-12-20T16:13:45;7.40;99.90
3051;DHT22;1535;51.098;6.414;2023-12-20T16:16:12;7.50;99.90
3051;DHT22;1535;51.098;6.414;2023-12-20T16:18:39;7.50;99.90